aviador You're here:

OIBL Decoded Metar

BANDAR LENGEH in IRAN
Report Time2018-02-18 21:00:00
UTC Time2018-02-18 21:58:33
Flight Rules mvfr MVFR
Wind240° at 04 kt
W.Decomp.*RWY 26: 3.7 kt HW 1.4 kt LCW
W.Rank240° ranks 6
Current wind is below 240° avg. (9.5)
Visibility7000 m
Phenomena:N/A
Clouds:N/A
Expected CloudBase > 6,400 ft AGL from Temp-Dew spread
CeilingNone
Temp22°C (ISA +7)
Dew Point06°C (36% RH)
AAT19.7°C
QNH1009 hPa
Density Alt1,135 ft
Elevation46 ft
Report Wrong Elevation
Raw Report
METAR OIBL 182100Z 24004KT 7000 NSC 22/06 Q1009=

Extra information for OIBL:More info

Metar Taf Metar & Taf Last 4 Metars F.Rules Stats Wind Profile Meteogram Temp Stats Airport Information Weather charts Add Link Nearby VenuesMetar ALERT Operation Metar Decoded Social comments